EDHK/KEL METAR and TAF weather

Enter ICAO airport designator
Station Type Date Time Source
EDHK METAR 2018/06/25 15:50 UTC NOAA

EDHK 251550Z 27009KT 9999 BKN013 OVC015 16/12 Q1021


Station Type Date Time Source
EDHK Decoded METAR 2018/06/25 15:50 UTC NOAA

Kiel / Holtenau Civilian, Germany (EDHK) 54-23N 010-10E
Jun 25, 2018 - 11:50 AM EDT / 2018.06.25 1550 UTC
Wind: from the W (270 degrees) at 10 MPH (9 KT):0
Visibility: greater than 7 mile(s):0
Sky conditions: overcast
Temperature: 60 F (16 C)
Dew Point: 53 F (12 C)
Relative Humidity: 77%
Pressure (altimeter): 30.15 in. Hg (1021 hPa)
ob: EDHK 251550Z 27009KT 9999 BKN013 OVC015 16/12 Q1021
cycle: 16

Station Type Date Time Source
EDHK TAF 2013/08/11 06:39 UTC NOAA

TAF EDHK 110633Z 1106/1118 24005KT 9999 SCT030
BECMG 1106/1109 25010KT
TEMPO 1106/1118 27015G25KT 4500 SHRA BKN012CB


Example: see airport list